sensor_id;sensor_type;location;lat;lon;timestamp;P1;durP1;ratioP1;P2;durP2;ratioP2
8610;SDS011;4343;53.648;10.098;2023-10-08T00:01:34;3.58;;;2.50;;
8610;SDS011;4343;53.648;10.098;2023-10-08T00:04:00;5.93;;;2.80;;
8610;SDS011;4343;53.648;10.098;2023-10-08T00:06:29;2.75;;;2.00;;
8610;SDS011;4343;53.648;10.098;2023-10-08T00:08:55;6.43;;;2.65;;
8610;SDS011;4343;53.648;10.098;2023-10-08T00:11:25;3.13;;;2.70;;
8610;SDS011;4343;53.648;10.098;2023-10-08T00:13:54;5.05;;;2.72;;
8610;SDS011;4343;53.648;10.098;2023-10-08T00:16:21;5.97;;;2.67;;
8610;SDS011;4343;53.648;10.098;2023-10-08T00:18:47;3.67;;;2.25;;
8610;SDS011;4343;53.648;10.098;2023-10-08T00:21:16;4.05;;;2.30;;
8610;SDS011;4343;53.648;10.098;2023-10-08T00:23:44;3.42;;;2.10;;
8610;SDS011;4343;53.648;10.098;2023-10-08T00:26:17;4.65;;;2.30;;
8610;SDS011;4343;53.648;10.098;2023-10-08T00:28:52;2.88;;;2.47;;
8610;SDS011;4343;53.648;10.098;2023-10-08T00:31:19;2.80;;;2.30;;
8610;SDS011;4343;53.648;10.098;2023-10-08T00:33:44;3.83;;;2.67;;
8610;SDS011;4343;53.648;10.098;2023-10-08T00:36:10;5.93;;;2.78;;
8610;SDS011;4343;53.648;10.098;2023-10-08T00:38:43;2.20;;;2.00;;
8610;SDS011;4343;53.648;10.098;2023-10-08T00:41:13;4.40;;;2.40;;
8610;SDS011;4343;53.648;10.098;2023-10-08T00:43:46;5.93;;;2.35;;
8610;SDS011;4343;53.648;10.098;2023-10-08T00:46:12;3.90;;;2.25;;
8610;SDS011;4343;53.648;10.098;2023-10-08T00:48:49;4.75;;;2.53;;
8610;SDS011;4343;53.648;10.098;2023-10-08T00:51:19;5.93;;;2.55;;
8610;SDS011;4343;53.648;10.098;2023-10-08T00:53:53;6.85;;;3.38;;
8610;SDS011;4343;53.648;10.098;2023-10-08T00:56:28;3.30;;;2.38;;
8610;SDS011;4343;53.648;10.098;2023-10-08T00:59:14;4.50;;;2.20;;
8610;SDS011;4343;53.648;10.098;2023-10-08T01:01:40;3.35;;;1.90;;
8610;SDS011;4343;53.648;10.098;2023-10-08T01:04:23;5.22;;;2.42;;
8610;SDS011;4343;53.648;10.098;2023-10-08T01:06:53;5.75;;;2.28;;
8610;SDS011;4343;53.648;10.098;2023-10-08T01:09:20;3.47;;;2.20;;
8610;SDS011;4343;53.648;10.098;2023-10-08T01:12:14;2.70;;;2.35;;
8610;SDS011;4343;53.648;10.098;2023-10-08T01:14:46;3.72;;;2.10;;
8610;SDS011;4343;53.648;10.098;2023-10-08T01:17:13;4.50;;;2.20;;
8610;SDS011;4343;53.648;10.098;2023-10-08T01:19:41;5.18;;;2.67;;
8610;SDS011;4343;53.648;10.098;2023-10-08T01:22:10;3.67;;;2.08;;
8610;SDS011;4343;53.648;10.098;2023-10-08T01:24:42;5.25;;;2.45;;
8610;SDS011;4343;53.648;10.098;2023-10-08T01:27:08;3.95;;;2.10;;
8610;SDS011;4343;53.648;10.098;2023-10-08T01:29:37;4.07;;;2.47;;
8610;SDS011;4343;53.648;10.098;2023-10-08T01:32:03;4.55;;;2.28;;
8610;SDS011;4343;53.648;10.098;2023-10-08T01:34:34;3.00;;;2.30;;
8610;SDS011;4343;53.648;10.098;2023-10-08T01:37:01;1.77;;;1.63;;
8610;SDS011;4343;53.648;10.098;2023-10-08T01:39:34;1.90;;;1.80;;
8610;SDS011;4343;53.648;10.098;2023-10-08T01:42:03;2.20;;;2.00;;
8610;SDS011;4343;53.648;10.098;2023-10-08T01:44:30;2.65;;;2.20;;
8610;SDS011;4343;53.648;10.098;2023-10-08T01:46:56;5.05;;;2.80;;
8610;SDS011;4343;53.648;10.098;2023-10-08T01:49:23;3.65;;;2.05;;
8610;SDS011;4343;53.648;10.098;2023-10-08T01:51:54;2.83;;;2.00;;
8610;SDS011;4343;53.648;10.098;2023-10-08T01:54:19;2.47;;;1.85;;
8610;SDS011;4343;53.648;10.098;2023-10-08T01:56:46;2.45;;;1.85;;
8610;SDS011;4343;53.648;10.098;2023-10-08T01:59:12;3.45;;;2.05;;
8610;SDS011;4343;53.648;10.098;2023-10-08T02:01:42;3.67;;;1.98;;
8610;SDS011;4343;53.648;10.098;2023-10-08T02:04:08;3.30;;;2.00;;
8610;SDS011;4343;53.648;10.098;2023-10-08T02:06:38;3.95;;;2.10;;
8610;SDS011;4343;53.648;10.098;2023-10-08T02:09:06;3.33;;;1.92;;
8610;SDS011;4343;53.648;10.098;2023-10-08T02:11:46;3.35;;;1.90;;
8610;SDS011;4343;53.648;10.098;2023-10-08T02:14:18;2.75;;;1.83;;
8610;SDS011;4343;53.648;10.098;2023-10-08T02:16:47;5.57;;;2.10;;
8610;SDS011;4343;53.648;10.098;2023-10-08T02:19:14;2.47;;;1.70;;
8610;SDS011;4343;53.648;10.098;2023-10-08T02:21:43;2.55;;;1.90;;
8610;SDS011;4343;53.648;10.098;2023-10-08T02:24:11;2.67;;;1.77;;
8610;SDS011;4343;53.648;10.098;2023-10-08T02:26:37;2.25;;;1.90;;
8610;SDS011;4343;53.648;10.098;2023-10-08T02:29:04;3.88;;;2.03;;
8610;SDS011;4343;53.648;10.098;2023-10-08T02:31:35;2.63;;;2.20;;
8610;SDS011;4343;53.648;10.098;2023-10-08T02:34:08;1.70;;;1.60;;
8610;SDS011;4343;53.648;10.098;2023-10-08T02:36:35;5.53;;;2.20;;
8610;SDS011;4343;53.648;10.098;2023-10-08T02:39:01;2.42;;;1.90;;
8610;SDS011;4343;53.648;10.098;2023-10-08T02:41:38;1.80;;;1.55;;
8610;SDS011;4343;53.648;10.098;2023-10-08T02:44:06;3.70;;;1.58;;
8610;SDS011;4343;53.648;10.098;2023-10-08T02:46:32;3.03;;;1.80;;
8610;SDS011;4343;53.648;10.098;2023-10-08T02:48:58;1.70;;;1.60;;
8610;SDS011;4343;53.648;10.098;2023-10-08T02:51:23;2.92;;;1.70;;
8610;SDS011;4343;53.648;10.098;2023-10-08T02:53:49;2.22;;;1.90;;
8610;SDS011;4343;53.648;10.098;2023-10-08T02:56:15;3.75;;;1.88;;
8610;SDS011;4343;53.648;10.098;2023-10-08T02:58:41;2.25;;;1.90;;
8610;SDS011;4343;53.648;10.098;2023-10-08T03:01:08;3.33;;;1.70;;
8610;SDS011;4343;53.648;10.098;2023-10-08T03:03:40;3.00;;;1.90;;
8610;SDS011;4343;53.648;10.098;2023-10-08T03:06:07;1.98;;;1.88;;
8610;SDS011;4343;53.648;10.098;2023-10-08T03:08:40;1.80;;;1.67;;
8610;SDS011;4343;53.648;10.098;2023-10-08T03:11:09;2.08;;;1.60;;
8610;SDS011;4343;53.648;10.098;2023-10-08T03:13:43;1.80;;;1.60;;
8610;SDS011;4343;53.648;10.098;2023-10-08T03:16:11;2.55;;;1.80;;
8610;SDS011;4343;53.648;10.098;2023-10-08T03:18:38;3.70;;;1.92;;
8610;SDS011;4343;53.648;10.098;2023-10-08T03:21:10;3.22;;;1.48;;
8610;SDS011;4343;53.648;10.098;2023-10-08T03:23:45;5.28;;;1.67;;
8610;SDS011;4343;53.648;10.098;2023-10-08T03:26:13;2.53;;;1.75;;
8610;SDS011;4343;53.648;10.098;2023-10-08T03:29:02;2.88;;;1.52;;
8610;SDS011;4343;53.648;10.098;2023-10-08T03:31:41;3.28;;;1.85;;
8610;SDS011;4343;53.648;10.098;2023-10-08T03:34:15;1.75;;;1.50;;
8610;SDS011;4343;53.648;10.098;2023-10-08T03:36:43;1.98;;;1.63;;
8610;SDS011;4343;53.648;10.098;2023-10-08T03:39:13;1.63;;;1.52;;
8610;SDS011;4343;53.648;10.098;2023-10-08T03:41:42;2.85;;;2.17;;
8610;SDS011;4343;53.648;10.098;2023-10-08T03:44:16;1.50;;;1.40;;
8610;SDS011;4343;53.648;10.098;2023-10-08T03:46:42;2.00;;;1.80;;
8610;SDS011;4343;53.648;10.098;2023-10-08T03:49:11;2.10;;;1.52;;
8610;SDS011;4343;53.648;10.098;2023-10-08T03:51:47;2.65;;;1.70;;
8610;SDS011;4343;53.648;10.098;2023-10-08T03:54:16;1.42;;;1.33;;
8610;SDS011;4343;53.648;10.098;2023-10-08T03:56:43;1.20;;;1.20;;
8610;SDS011;4343;53.648;10.098;2023-10-08T03:59:16;3.53;;;1.70;;
8610;SDS011;4343;53.648;10.098;2023-10-08T04:01:57;2.58;;;1.50;;
8610;SDS011;4343;53.648;10.098;2023-10-08T04:04:38;1.25;;;1.25;;
8610;SDS011;4343;53.648;10.098;2023-10-08T04:07:19;2.05;;;1.67;;
8610;SDS011;4343;53.648;10.098;2023-10-08T04:10:04;2.45;;;1.42;;
8610;SDS011;4343;53.648;10.098;2023-10-08T04:12:33;2.00;;;1.67;;
8610;SDS011;4343;53.648;10.098;2023-10-08T04:15:07;1.33;;;1.13;;
8610;SDS011;4343;53.648;10.098;2023-10-08T04:17:33;1.33;;;1.27;;
8610;SDS011;4343;53.648;10.098;2023-10-08T04:20:09;4.50;;;2.25;;
8610;SDS011;4343;53.648;10.098;2023-10-08T04:22:59;1.83;;;1.38;;
8610;SDS011;4343;53.648;10.098;2023-10-08T04:25:26;1.15;;;1.13;;
8610;SDS011;4343;53.648;10.098;2023-10-08T04:27:53;1.63;;;1.20;;
8610;SDS011;4343;53.648;10.098;2023-10-08T04:30:26;1.98;;;1.45;;
8610;SDS011;4343;53.648;10.098;2023-10-08T04:33:04;2.22;;;1.50;;
8610;SDS011;4343;53.648;10.098;2023-10-08T04:35:36;1.30;;;1.20;;
8610;SDS011;4343;53.648;10.098;2023-10-08T04:38:26;1.20;;;1.20;;
8610;SDS011;4343;53.648;10.098;2023-10-08T04:40:53;1.38;;;1.27;;
8610;SDS011;4343;53.648;10.098;2023-10-08T04:43:19;1.27;;;1.27;;
8610;SDS011;4343;53.648;10.098;2023-10-08T04:45:57;1.75;;;1.20;;
8610;SDS011;4343;53.648;10.098;2023-10-08T04:48:23;1.60;;;1.50;;
8610;SDS011;4343;53.648;10.098;2023-10-08T04:50:50;1.48;;;1.38;;
8610;SDS011;4343;53.648;10.098;2023-10-08T04:53:24;1.48;;;1.40;;
8610;SDS011;4343;53.648;10.098;2023-10-08T04:55:56;2.08;;;1.33;;
8610;SDS011;4343;53.648;10.098;2023-10-08T04:58:23;2.92;;;1.38;;
8610;SDS011;4343;53.648;10.098;2023-10-08T05:00:58;2.00;;;1.75;;
8610;SDS011;4343;53.648;10.098;2023-10-08T05:03:42;1.63;;;1.60;;
8610;SDS011;4343;53.648;10.098;2023-10-08T05:06:27;2.05;;;1.40;;
8610;SDS011;4343;53.648;10.098;2023-10-08T05:09:02;1.60;;;1.50;;
8610;SDS011;4343;53.648;10.098;2023-10-08T05:11:48;1.90;;;1.38;;
8610;SDS011;4343;53.648;10.098;2023-10-08T05:14:17;1.60;;;1.40;;
8610;SDS011;4343;53.648;10.098;2023-10-08T05:16:59;1.50;;;1.40;;
8610;SDS011;4343;53.648;10.098;2023-10-08T05:19:34;2.40;;;1.50;;
8610;SDS011;4343;53.648;10.098;2023-10-08T05:22:16;1.77;;;1.67;;
8610;SDS011;4343;53.648;10.098;2023-10-08T05:24:45;1.85;;;1.75;;
8610;SDS011;4343;53.648;10.098;2023-10-08T05:27:51;1.42;;;1.20;;
8610;SDS011;4343;53.648;10.098;2023-10-08T05:30:19;1.60;;;1.50;;
8610;SDS011;4343;53.648;10.098;2023-10-08T05:33:07;2.10;;;1.30;;
8610;SDS011;4343;53.648;10.098;2023-10-08T05:35:43;1.45;;;1.27;;
8610;SDS011;4343;53.648;10.098;2023-10-08T05:38:10;2.70;;;1.60;;
8610;SDS011;4343;53.648;10.098;2023-10-08T05:41:03;1.25;;;1.15;;
8610;SDS011;4343;53.648;10.098;2023-10-08T05:43:36;2.80;;;1.40;;
8610;SDS011;4343;53.648;10.098;2023-10-08T05:46:06;1.42;;;1.25;;
8610;SDS011;4343;53.648;10.098;2023-10-08T05:51:30;1.98;;;1.75;;
8610;SDS011;4343;53.648;10.098;2023-10-08T05:54:28;1.55;;;1.30;;
8610;SDS011;4343;53.648;10.098;2023-10-08T05:59:31;1.35;;;1.35;;
8610;SDS011;4343;53.648;10.098;2023-10-08T06:02:30;2.05;;;1.60;;
8610;SDS011;4343;53.648;10.098;2023-10-08T06:04:59;1.67;;;1.25;;
8610;SDS011;4343;53.648;10.098;2023-10-08T06:07:38;2.92;;;1.20;;
8610;SDS011;4343;53.648;10.098;2023-10-08T06:10:30;1.70;;;1.25;;
8610;SDS011;4343;53.648;10.098;2023-10-08T06:12:57;1.00;;;1.00;;
8610;SDS011;4343;53.648;10.098;2023-10-08T06:15:38;1.05;;;1.05;;
8610;SDS011;4343;53.648;10.098;2023-10-08T06:18:16;2.60;;;2.00;;
8610;SDS011;4343;53.648;10.098;2023-10-08T06:20:44;1.45;;;1.40;;
8610;SDS011;4343;53.648;10.098;2023-10-08T06:23:14;1.33;;;1.33;;
8610;SDS011;4343;53.648;10.098;2023-10-08T06:25:43;1.75;;;1.30;;
8610;SDS011;4343;53.648;10.098;2023-10-08T06:28:13;2.08;;;1.30;;
8610;SDS011;4343;53.648;10.098;2023-10-08T06:33:12;1.95;;;1.08;;
8610;SDS011;4343;53.648;10.098;2023-10-08T06:35:38;1.25;;;1.08;;
8610;SDS011;4343;53.648;10.098;2023-10-08T06:38:09;1.15;;;1.15;;
8610;SDS011;4343;53.648;10.098;2023-10-08T06:40:36;1.05;;;1.05;;
8610;SDS011;4343;53.648;10.098;2023-10-08T06:43:02;1.20;;;1.10;;
8610;SDS011;4343;53.648;10.098;2023-10-08T06:45:40;1.27;;;1.27;;
8610;SDS011;4343;53.648;10.098;2023-10-08T06:48:07;1.33;;;1.23;;
8610;SDS011;4343;53.648;10.098;2023-10-08T06:50:33;2.10;;;1.20;;
8610;SDS011;4343;53.648;10.098;2023-10-08T06:53:02;1.23;;;1.13;;
8610;SDS011;4343;53.648;10.098;2023-10-08T06:55:33;1.00;;;0.98;;
8610;SDS011;4343;53.648;10.098;2023-10-08T06:58:00;1.20;;;1.20;;
8610;SDS011;4343;53.648;10.098;2023-10-08T07:00:30;1.63;;;1.20;;
8610;SDS011;4343;53.648;10.098;2023-10-08T07:03:06;1.40;;;1.38;;
8610;SDS011;4343;53.648;10.098;2023-10-08T07:05:49;1.17;;;1.17;;
8610;SDS011;4343;53.648;10.098;2023-10-08T07:08:25;2.75;;;1.40;;
8610;SDS011;4343;53.648;10.098;2023-10-08T07:10:56;3.22;;;1.58;;
8610;SDS011;4343;53.648;10.098;2023-10-08T07:13:24;1.92;;;1.38;;
8610;SDS011;4343;53.648;10.098;2023-10-08T07:15:50;1.33;;;1.20;;
8610;SDS011;4343;53.648;10.098;2023-10-08T07:18:17;1.48;;;1.30;;
8610;SDS011;4343;53.648;10.098;2023-10-08T07:20:53;2.95;;;1.55;;
8610;SDS011;4343;53.648;10.098;2023-10-08T07:23:21;1.40;;;1.30;;
8610;SDS011;4343;53.648;10.098;2023-10-08T07:26:08;3.10;;;1.90;;
8610;SDS011;4343;53.648;10.098;2023-10-08T07:28:42;2.60;;;1.67;;
8610;SDS011;4343;53.648;10.098;2023-10-08T07:31:12;1.83;;;1.33;;
8610;SDS011;4343;53.648;10.098;2023-10-08T07:33:46;1.90;;;1.70;;
8610;SDS011;4343;53.648;10.098;2023-10-08T07:36:13;3.33;;;1.73;;
8610;SDS011;4343;53.648;10.098;2023-10-08T07:38:43;2.05;;;1.52;;
8610;SDS011;4343;53.648;10.098;2023-10-08T07:41:12;1.50;;;1.40;;
8610;SDS011;4343;53.648;10.098;2023-10-08T07:43:42;3.72;;;1.45;;
8610;SDS011;4343;53.648;10.098;2023-10-08T07:46:09;4.50;;;2.20;;
8610;SDS011;4343;53.648;10.098;2023-10-08T07:48:35;3.00;;;1.27;;
8610;SDS011;4343;53.648;10.098;2023-10-08T07:51:03;3.45;;;1.27;;
8610;SDS011;4343;53.648;10.098;2023-10-08T07:53:28;2.30;;;1.60;;
8610;SDS011;4343;53.648;10.098;2023-10-08T07:56:05;3.97;;;1.40;;
8610;SDS011;4343;53.648;10.098;2023-10-08T07:58:32;1.75;;;1.30;;
8610;SDS011;4343;53.648;10.098;2023-10-08T08:01:02;1.33;;;1.10;;
8610;SDS011;4343;53.648;10.098;2023-10-08T08:03:31;2.22;;;1.23;;
8610;SDS011;4343;53.648;10.098;2023-10-08T08:05:57;3.25;;;1.33;;
8610;SDS011;4343;53.648;10.098;2023-10-08T08:08:23;9.52;;;1.83;;
8610;SDS011;4343;53.648;10.098;2023-10-08T08:10:52;1.60;;;1.20;;
8610;SDS011;4343;53.648;10.098;2023-10-08T08:13:23;1.60;;;1.42;;
8610;SDS011;4343;53.648;10.098;2023-10-08T08:15:52;3.35;;;1.27;;
8610;SDS011;4343;53.648;10.098;2023-10-08T08:18:23;1.15;;;1.00;;
8610;SDS011;4343;53.648;10.098;2023-10-08T08:20:50;3.40;;;1.30;;
8610;SDS011;4343;53.648;10.098;2023-10-08T08:23:15;1.40;;;1.30;;
8610;SDS011;4343;53.648;10.098;2023-10-08T08:25:41;1.85;;;1.45;;
8610;SDS011;4343;53.648;10.098;2023-10-08T08:28:11;1.27;;;1.23;;
8610;SDS011;4343;53.648;10.098;2023-10-08T08:30:42;1.58;;;1.23;;
8610;SDS011;4343;53.648;10.098;2023-10-08T08:33:17;2.05;;;1.00;;
8610;SDS011;4343;53.648;10.098;2023-10-08T08:35:58;1.83;;;1.20;;
8610;SDS011;4343;53.648;10.098;2023-10-08T08:38:25;1.55;;;1.10;;
8610;SDS011;4343;53.648;10.098;2023-10-08T08:40:51;2.90;;;1.10;;
8610;SDS011;4343;53.648;10.098;2023-10-08T08:43:31;1.30;;;1.15;;
8610;SDS011;4343;53.648;10.098;2023-10-08T08:46:04;1.50;;;1.40;;
8610;SDS011;4343;53.648;10.098;2023-10-08T08:48:33;1.30;;;1.08;;
8610;SDS011;4343;53.648;10.098;2023-10-08T08:51:00;1.40;;;1.25;;
8610;SDS011;4343;53.648;10.098;2023-10-08T08:53:26;1.20;;;1.10;;
8610;SDS011;4343;53.648;10.098;2023-10-08T08:55:51;2.60;;;1.60;;
8610;SDS011;4343;53.648;10.098;2023-10-08T08:58:20;4.35;;;1.40;;
8610;SDS011;4343;53.648;10.098;2023-10-08T09:00:46;1.20;;;1.10;;
8610;SDS011;4343;53.648;10.098;2023-10-08T09:03:17;2.13;;;1.20;;
8610;SDS011;4343;53.648;10.098;2023-10-08T09:05:44;1.33;;;1.23;;
8610;SDS011;4343;53.648;10.098;2023-10-08T09:08:14;2.80;;;1.70;;
8610;SDS011;4343;53.648;10.098;2023-10-08T09:10:43;2.28;;;1.52;;
8610;SDS011;4343;53.648;10.098;2023-10-08T09:13:20;1.10;;;1.10;;
8610;SDS011;4343;53.648;10.098;2023-10-08T09:15:48;1.75;;;1.13;;
8610;SDS011;4343;53.648;10.098;2023-10-08T09:18:14;1.95;;;1.30;;
8610;SDS011;4343;53.648;10.098;2023-10-08T09:20:40;2.50;;;1.38;;
8610;SDS011;4343;53.648;10.098;2023-10-08T09:23:15;1.00;;;1.00;;
8610;SDS011;4343;53.648;10.098;2023-10-08T09:25:43;2.00;;;1.20;;
8610;SDS011;4343;53.648;10.098;2023-10-08T09:28:09;3.50;;;1.35;;
8610;SDS011;4343;53.648;10.098;2023-10-08T09:30:38;1.52;;;1.42;;
8610;SDS011;4343;53.648;10.098;2023-10-08T09:33:08;1.23;;;1.10;;
8610;SDS011;4343;53.648;10.098;2023-10-08T09:35:35;1.40;;;1.00;;
8610;SDS011;4343;53.648;10.098;2023-10-08T09:38:06;1.50;;;1.27;;
8610;SDS011;4343;53.648;10.098;2023-10-08T09:40:34;3.00;;;1.35;;
8610;SDS011;4343;53.648;10.098;2023-10-08T09:43:02;1.15;;;1.10;;
8610;SDS011;4343;53.648;10.098;2023-10-08T09:45:28;1.27;;;1.15;;
8610;SDS011;4343;53.648;10.098;2023-10-08T09:47:55;3.25;;;1.40;;
8610;SDS011;4343;53.648;10.098;2023-10-08T09:50:32;1.55;;;1.33;;
8610;SDS011;4343;53.648;10.098;2023-10-08T09:55:36;2.80;;;1.48;;
8610;SDS011;4343;53.648;10.098;2023-10-08T09:58:02;1.20;;;1.10;;
8610;SDS011;4343;53.648;10.098;2023-10-08T10:00:29;1.08;;;1.00;;
8610;SDS011;4343;53.648;10.098;2023-10-08T10:02:59;1.35;;;0.98;;
8610;SDS011;4343;53.648;10.098;2023-10-08T10:05:34;1.10;;;1.10;;
8610;SDS011;4343;53.648;10.098;2023-10-08T10:08:02;1.33;;;1.23;;
8610;SDS011;4343;53.648;10.098;2023-10-08T10:10:31;1.00;;;1.00;;
8610;SDS011;4343;53.648;10.098;2023-10-08T10:13:03;1.38;;;1.10;;
8610;SDS011;4343;53.648;10.098;2023-10-08T10:15:33;1.35;;;1.25;;
8610;SDS011;4343;53.648;10.098;2023-10-08T10:18:27;1.98;;;1.20;;
8610;SDS011;4343;53.648;10.098;2023-10-08T10:21:00;1.27;;;1.17;;
8610;SDS011;4343;53.648;10.098;2023-10-08T10:23:38;1.23;;;1.23;;
8610;SDS011;4343;53.648;10.098;2023-10-08T10:26:21;1.38;;;1.15;;
8610;SDS011;4343;53.648;10.098;2023-10-08T10:31:39;1.05;;;1.05;;
8610;SDS011;4343;53.648;10.098;2023-10-08T10:34:10;1.15;;;1.13;;
8610;SDS011;4343;53.648;10.098;2023-10-08T10:36:38;1.35;;;1.15;;
8610;SDS011;4343;53.648;10.098;2023-10-08T10:39:08;1.60;;;1.50;;
8610;SDS011;4343;53.648;10.098;2023-10-08T10:41:51;0.95;;;0.95;;
8610;SDS011;4343;53.648;10.098;2023-10-08T10:44:26;1.60;;;1.27;;
8610;SDS011;4343;53.648;10.098;2023-10-08T10:46:52;1.13;;;1.10;;
8610;SDS011;4343;53.648;10.098;2023-10-08T10:49:38;1.83;;;1.20;;
8610;SDS011;4343;53.648;10.098;2023-10-08T10:52:14;1.20;;;1.20;;
8610;SDS011;4343;53.648;10.098;2023-10-08T10:54:56;3.70;;;1.35;;
8610;SDS011;4343;53.648;10.098;2023-10-08T10:57:42;7.28;;;1.60;;
8610;SDS011;4343;53.648;10.098;2023-10-08T11:00:09;1.02;;;1.00;;
8610;SDS011;4343;53.648;10.098;2023-10-08T11:02:55;1.85;;;1.58;;
8610;SDS011;4343;53.648;10.098;2023-10-08T11:05:25;3.13;;;1.42;;
8610;SDS011;4343;53.648;10.098;2023-10-08T11:07:55;1.00;;;1.00;;
8610;SDS011;4343;53.648;10.098;2023-10-08T11:10:30;3.53;;;1.48;;
8610;SDS011;4343;53.648;10.098;2023-10-08T11:12:57;1.00;;;1.00;;
8610;SDS011;4343;53.648;10.098;2023-10-08T11:15:26;1.38;;;1.20;;
8610;SDS011;4343;53.648;10.098;2023-10-08T11:18:02;1.00;;;1.00;;
8610;SDS011;4343;53.648;10.098;2023-10-08T11:20:33;1.40;;;1.30;;
8610;SDS011;4343;53.648;10.098;2023-10-08T11:23:04;1.20;;;1.02;;
8610;SDS011;4343;53.648;10.098;2023-10-08T11:25:51;1.20;;;1.10;;
8610;SDS011;4343;53.648;10.098;2023-10-08T11:28:25;1.27;;;1.27;;
8610;SDS011;4343;53.648;10.098;2023-10-08T11:30:52;1.08;;;1.08;;
8610;SDS011;4343;53.648;10.098;2023-10-08T11:33:18;1.25;;;1.13;;
8610;SDS011;4343;53.648;10.098;2023-10-08T11:38:26;1.30;;;1.30;;
8610;SDS011;4343;53.648;10.098;2023-10-08T11:40:55;1.10;;;1.10;;
8610;SDS011;4343;53.648;10.098;2023-10-08T11:43:24;1.45;;;1.40;;
8610;SDS011;4343;53.648;10.098;2023-10-08T11:45:50;1.58;;;1.33;;
8610;SDS011;4343;53.648;10.098;2023-10-08T11:48:16;0.85;;;0.85;;
8610;SDS011;4343;53.648;10.098;2023-10-08T11:50:50;1.05;;;1.05;;
8610;SDS011;4343;53.648;10.098;2023-10-08T11:53:16;0.95;;;0.95;;
8610;SDS011;4343;53.648;10.098;2023-10-08T11:55:44;1.05;;;1.05;;
8610;SDS011;4343;53.648;10.098;2023-10-08T11:58:12;0.90;;;0.90;;
8610;SDS011;4343;53.648;10.098;2023-10-08T12:00:42;1.10;;;1.10;;
8610;SDS011;4343;53.648;10.098;2023-10-08T12:03:12;1.27;;;1.20;;
8610;SDS011;4343;53.648;10.098;2023-10-08T12:05:43;1.23;;;1.23;;
8610;SDS011;4343;53.648;10.098;2023-10-08T12:08:24;1.10;;;1.10;;
8610;SDS011;4343;53.648;10.098;2023-10-08T12:10:52;3.03;;;1.00;;
8610;SDS011;4343;53.648;10.098;2023-10-08T12:13:21;0.80;;;0.80;;
8610;SDS011;4343;53.648;10.098;2023-10-08T12:15:51;0.82;;;0.82;;
8610;SDS011;4343;53.648;10.098;2023-10-08T12:18:38;1.30;;;1.20;;
8610;SDS011;4343;53.648;10.098;2023-10-08T12:21:08;2.42;;;1.25;;
8610;SDS011;4343;53.648;10.098;2023-10-08T12:23:40;1.00;;;1.00;;
8610;SDS011;4343;53.648;10.098;2023-10-08T12:26:08;1.00;;;1.00;;
8610;SDS011;4343;53.648;10.098;2023-10-08T12:28:35;2.05;;;1.10;;
8610;SDS011;4343;53.648;10.098;2023-10-08T12:31:01;0.80;;;0.80;;
8610;SDS011;4343;53.648;10.098;2023-10-08T12:33:29;2.00;;;1.25;;
8610;SDS011;4343;53.648;10.098;2023-10-08T12:35:56;1.38;;;1.30;;
8610;SDS011;4343;53.648;10.098;2023-10-08T12:38:23;1.55;;;1.20;;
8610;SDS011;4343;53.648;10.098;2023-10-08T12:40:52;1.13;;;1.10;;
8610;SDS011;4343;53.648;10.098;2023-10-08T12:43:22;1.10;;;1.10;;
8610;SDS011;4343;53.648;10.098;2023-10-08T12:45:52;1.13;;;1.02;;
8610;SDS011;4343;53.648;10.098;2023-10-08T12:48:21;1.08;;;1.08;;
8610;SDS011;4343;53.648;10.098;2023-10-08T12:50:49;1.20;;;1.20;;
8610;SDS011;4343;53.648;10.098;2023-10-08T12:53:25;1.00;;;1.00;;
8610;SDS011;4343;53.648;10.098;2023-10-08T12:55:53;1.85;;;1.60;;
8610;SDS011;4343;53.648;10.098;2023-10-08T12:58:20;1.13;;;1.13;;
8610;SDS011;4343;53.648;10.098;2023-10-08T13:00:50;1.70;;;1.45;;
8610;SDS011;4343;53.648;10.098;2023-10-08T13:03:22;2.67;;;1.20;;
8610;SDS011;4343;53.648;10.098;2023-10-08T13:05:51;0.80;;;0.80;;
8610;SDS011;4343;53.648;10.098;2023-10-08T13:08:29;1.08;;;1.08;;
8610;SDS011;4343;53.648;10.098;2023-10-08T13:10:59;0.88;;;0.88;;
8610;SDS011;4343;53.648;10.098;2023-10-08T13:13:27;1.17;;;1.10;;
8610;SDS011;4343;53.648;10.098;2023-10-08T13:15:53;1.23;;;1.10;;
8610;SDS011;4343;53.648;10.098;2023-10-08T13:18:22;1.95;;;1.30;;
8610;SDS011;4343;53.648;10.098;2023-10-08T13:20:50;1.00;;;1.00;;
8610;SDS011;4343;53.648;10.098;2023-10-08T13:23:16;0.90;;;0.90;;
8610;SDS011;4343;53.648;10.098;2023-10-08T13:25:43;1.02;;;1.02;;
8610;SDS011;4343;53.648;10.098;2023-10-08T13:28:11;1.20;;;1.20;;
8610;SDS011;4343;53.648;10.098;2023-10-08T13:30:37;1.08;;;1.08;;
8610;SDS011;4343;53.648;10.098;2023-10-08T13:33:03;1.25;;;1.00;;
8610;SDS011;4343;53.648;10.098;2023-10-08T13:35:29;1.00;;;1.00;;
8610;SDS011;4343;53.648;10.098;2023-10-08T13:37:54;2.33;;;1.23;;
8610;SDS011;4343;53.648;10.098;2023-10-08T13:40:21;1.25;;;1.20;;
8610;SDS011;4343;53.648;10.098;2023-10-08T13:42:57;1.15;;;1.10;;
8610;SDS011;4343;53.648;10.098;2023-10-08T13:45:23;1.10;;;1.10;;
8610;SDS011;4343;53.648;10.098;2023-10-08T13:47:52;1.45;;;1.05;;
8610;SDS011;4343;53.648;10.098;2023-10-08T13:50:18;0.93;;;0.93;;
8610;SDS011;4343;53.648;10.098;2023-10-08T13:52:43;1.10;;;1.10;;
8610;SDS011;4343;53.648;10.098;2023-10-08T13:55:09;1.00;;;1.00;;
8610;SDS011;4343;53.648;10.098;2023-10-08T13:57:39;1.10;;;1.10;;
8610;SDS011;4343;53.648;10.098;2023-10-08T14:00:07;0.88;;;0.88;;
8610;SDS011;4343;53.648;10.098;2023-10-08T14:02:41;1.05;;;1.05;;
8610;SDS011;4343;53.648;10.098;2023-10-08T14:05:07;1.55;;;1.15;;
8610;SDS011;4343;53.648;10.098;2023-10-08T14:07:34;0.73;;;0.73;;
8610;SDS011;4343;53.648;10.098;2023-10-08T14:10:01;1.00;;;1.00;;
8610;SDS011;4343;53.648;10.098;2023-10-08T14:12:33;0.98;;;0.95;;
8610;SDS011;4343;53.648;10.098;2023-10-08T14:15:00;1.60;;;1.50;;
8610;SDS011;4343;53.648;10.098;2023-10-08T14:17:31;1.15;;;1.15;;
8610;SDS011;4343;53.648;10.098;2023-10-08T14:20:13;0.98;;;0.90;;
8610;SDS011;4343;53.648;10.098;2023-10-08T14:22:46;1.25;;;1.23;;
8610;SDS011;4343;53.648;10.098;2023-10-08T14:25:22;1.52;;;0.90;;
8610;SDS011;4343;53.648;10.098;2023-10-08T14:27:52;0.90;;;0.90;;
8610;SDS011;4343;53.648;10.098;2023-10-08T14:30:18;1.17;;;1.00;;
8610;SDS011;4343;53.648;10.098;2023-10-08T14:32:48;1.40;;;1.20;;
8610;SDS011;4343;53.648;10.098;2023-10-08T14:35:15;1.20;;;1.10;;
8610;SDS011;4343;53.648;10.098;2023-10-08T14:37:59;1.20;;;1.10;;
8610;SDS011;4343;53.648;10.098;2023-10-08T14:40:45;1.05;;;1.00;;
8610;SDS011;4343;53.648;10.098;2023-10-08T14:43:30;1.02;;;0.98;;
8610;SDS011;4343;53.648;10.098;2023-10-08T14:45:59;1.50;;;1.40;;
8610;SDS011;4343;53.648;10.098;2023-10-08T14:48:31;1.00;;;1.00;;
8610;SDS011;4343;53.648;10.098;2023-10-08T14:51:00;5.30;;;1.10;;
8610;SDS011;4343;53.648;10.098;2023-10-08T14:53:27;2.33;;;1.13;;
8610;SDS011;4343;53.648;10.098;2023-10-08T14:55:53;1.10;;;1.10;;
8610;SDS011;4343;53.648;10.098;2023-10-08T14:58:19;1.10;;;1.10;;
8610;SDS011;4343;53.648;10.098;2023-10-08T15:00:44;1.23;;;1.23;;
8610;SDS011;4343;53.648;10.098;2023-10-08T15:03:10;1.98;;;1.40;;
8610;SDS011;4343;53.648;10.098;2023-10-08T15:05:37;1.40;;;1.30;;
8610;SDS011;4343;53.648;10.098;2023-10-08T15:08:05;1.48;;;1.38;;
8610;SDS011;4343;53.648;10.098;2023-10-08T15:10:34;1.40;;;1.30;;
8610;SDS011;4343;53.648;10.098;2023-10-08T15:13:00;1.55;;;1.30;;
8610;SDS011;4343;53.648;10.098;2023-10-08T15:15:26;1.77;;;1.45;;
8610;SDS011;4343;53.648;10.098;2023-10-08T15:17:59;1.35;;;1.25;;
8610;SDS011;4343;53.648;10.098;2023-10-08T15:20:27;1.55;;;1.45;;
8610;SDS011;4343;53.648;10.098;2023-10-08T15:22:55;1.23;;;1.23;;
8610;SDS011;4343;53.648;10.098;2023-10-08T15:25:21;1.63;;;1.48;;
8610;SDS011;4343;53.648;10.098;2023-10-08T15:27:47;1.23;;;1.23;;
8610;SDS011;4343;53.648;10.098;2023-10-08T15:30:14;1.50;;;1.40;;
8610;SDS011;4343;53.648;10.098;2023-10-08T15:32:43;1.60;;;1.58;;
8610;SDS011;4343;53.648;10.098;2023-10-08T15:35:13;1.38;;;1.27;;
8610;SDS011;4343;53.648;10.098;2023-10-08T15:37:41;1.30;;;1.20;;
8610;SDS011;4343;53.648;10.098;2023-10-08T15:40:08;1.42;;;1.42;;